Time,TemperatureF,DewpointF,PressureIn,WindDirection,WindDirectionDegrees,WindSpeedMPH,WindSpeedGustMPH,Humidity,HourlyPrecipIn,Conditions,Clouds,dailyrainin,SoftwareType,DateUTC
2013-07-27 00:02:00,69.0,67.5,29.96,SSW,206,0.0,2.0,95,0.01,,,0.00,WUHU216DAVISVP2,2013-07-27 05:02:00,
2013-07-27 00:07:00,69.0,67.5,29.96,SSW,195,1.0,2.0,95,0.00,,,0.00,WUHU216DAVISVP2,2013-07-27 05:07:00,
2013-07-27 00:12:00,69.0,67.5,29.95,SSW,205,1.0,2.0,95,0.00,,,0.00,WUHU216DAVISVP2,2013-07-27 05:12:00,
2013-07-27 00:17:00,69.0,67.5,29.95,SW,214,1.0,2.0,95,0.00,,,0.00,WUHU216DAVISVP2,2013-07-27 05:17:00,
2013-07-27 00:22:00,69.0,67.5,29.95,SSW,200,2.0,4.0,95,0.00,,,0.00,WUHU216DAVISVP2,2013-07-27 05:22:00,
2013-07-27 00:27:00,69.0,67.5,29.95,SSW,212,2.0,4.0,95,0.00,,,0.00,WUHU216DAVISVP2,2013-07-27 05:27:00,
2013-07-27 00:32:00,68.9,67.4,29.95,SSW,197,3.0,4.0,95,0.00,,,0.00,WUHU216DAVISVP2,2013-07-27 05:32:00,
2013-07-27 00:37:00,68.9,67.4,29.95,SSW,205,4.0,5.0,95,0.00,,,0.00,WUHU216DAVISVP2,2013-07-27 05:37:00,
2013-07-27 00:42:00,68.9,67.4,29.95,South,181,3.0,5.0,95,0.00,,,0.00,WUHU216DAVISVP2,2013-07-27 05:42:00,
2013-07-27 00:47:00,68.9,67.4,29.95,SW,218,3.0,5.0,95,0.00,,,0.00,WUHU216DAVISVP2,2013-07-27 05:47:00,
2013-07-27 00:52:00,69.0,67.5,29.95,SSW,212,4.0,5.0,95,0.00,,,0.00,WUHU216DAVISVP2,2013-07-27 05:52:00,
2013-07-27 00:57:00,69.0,67.5,29.95,SSW,193,3.0,6.0,95,0.00,,,0.00,WUHU216DAVISVP2,2013-07-27 05:57:00,
2013-07-27 01:02:00,69.0,67.5,29.95,SSW,213,4.0,6.0,95,0.00,,,0.00,WUHU216DAVISVP2,2013-07-27 06:02:00,
2013-07-27 01:07:00,69.1,67.6,29.95,SW,228,5.0,7.0,95,0.00,,,0.00,WUHU216DAVISVP2,2013-07-27 06:07:00,
2013-07-27 01:12:00,69.1,67.6,29.95,South,191,3.0,7.0,95,0.00,,,0.00,WUHU216DAVISVP2,2013-07-27 06:12:00,
2013-07-27 01:17:00,69.0,67.5,29.95,SSW,212,6.0,7.0,95,0.00,,,0.00,WUHU216DAVISVP2,2013-07-27 06:17:00,
2013-07-27 01:22:00,69.0,67.5,29.95,SSW,209,4.0,6.0,95,0.00,,,0.00,WUHU216DAVISVP2,2013-07-27 06:22:00,
2013-07-27 01:27:00,68.9,67.4,29.95,SSW,204,2.0,6.0,95,0.00,,,0.00,WUHU216DAVISVP2,2013-07-27 06:27:00,
2013-07-27 01:32:00,68.8,67.3,29.94,SSW,198,3.0,6.0,95,0.00,,,0.00,WUHU216DAVISVP2,2013-07-27 06:32:00,
2013-07-27 01:37:00,68.8,67.3,29.94,SW,220,5.0,7.0,95,0.00,,,0.00,WUHU216DAVISVP2,2013-07-27 06:37:00,
2013-07-27 01:42:00,68.9,67.7,29.94,SSW,205,3.0,7.0,96,0.00,,,0.00,WUHU216DAVISVP2,2013-07-27 06:42:00,
2013-07-27 01:47:00,69.0,67.8,29.94,SSW,212,4.0,6.0,96,0.00,,,0.00,WUHU216DAVISVP2,2013-07-27 06:47:00,
2013-07-27 01:52:00,69.0,67.8,29.94,SW,225,6.0,6.0,96,0.00,,,0.00,WUHU216DAVISVP2,2013-07-27 06:52:00,
2013-07-27 01:57:00,69.0,67.5,29.94,SW,231,2.0,6.0,95,0.00,,,0.00,WUHU216DAVISVP2,2013-07-27 06:57:00,
2013-07-27 02:02:00,68.9,67.4,29.94,SSW,205,3.0,6.0,95,0.00,,,0.00,WUHU216DAVISVP2,2013-07-27 07:02:00,
2013-07-27 02:07:00,68.9,67.4,29.94,WSW,240,6.0,7.0,95,0.00,,,0.00,WUHU216DAVISVP2,2013-07-27 07:07:00,
2013-07-27 02:12:00,68.9,67.4,29.94,SSW,199,3.0,7.0,95,0.00,,,0.00,WUHU216DAVISVP2,2013-07-27 07:12:00,
2013-07-27 02:17:00,69.0,67.5,29.94,SSW,209,3.0,7.0,95,0.00,,,0.00,WUHU216DAVISVP2,2013-07-27 07:17:00,
2013-07-27 02:22:00,69.0,67.5,29.94,SW,224,6.0,7.0,95,0.00,,,0.00,WUHU216DAVISVP2,2013-07-27 07:22:00,
2013-07-27 02:27:00,68.9,67.4,29.94,SSW,204,4.0,8.0,95,0.00,,,0.00,WUHU216DAVISVP2,2013-07-27 07:27:00,
2013-07-27 02:32:00,68.9,67.4,29.94,SW,216,4.0,8.0,95,0.00,,,0.00,WUHU216DAVISVP2,2013-07-27 07:32:00,
2013-07-27 02:37:00,68.9,67.4,29.94,SW,224,5.0,6.0,95,0.00,,,0.00,WUHU216DAVISVP2,2013-07-27 07:37:00,
2013-07-27 02:42:00,68.9,67.4,29.94,SW,222,4.0,6.0,95,0.00,,,0.00,WUHU216DAVISVP2,2013-07-27 07:42:00,
2013-07-27 02:47:00,69.0,67.5,29.94,SW,214,3.0,6.0,95,0.00,,,0.00,WUHU216DAVISVP2,2013-07-27 07:47:00,
2013-07-27 02:52:00,69.0,67.5,29.94,SSW,208,2.0,5.0,95,0.00,,,0.00,WUHU216DAVISVP2,2013-07-27 07:52:00,
2013-07-27 02:57:00,69.0,67.5,29.94,SW,215,2.0,5.0,95,0.00,,,0.00,WUHU216DAVISVP2,2013-07-27 07:57:00,
2013-07-27 03:02:00,69.0,67.5,29.94,SW,214,3.0,5.0,95,0.00,,,0.00,WUHU216DAVISVP2,2013-07-27 08:02:00,
2013-07-27 03:07:00,69.0,67.8,29.94,WSW,257,0.0,5.0,96,0.00,,,0.00,WUHU216DAVISVP2,2013-07-27 08:07:00,
2013-07-27 03:12:00,69.0,67.8,29.94,WSW,237,0.0,5.0,96,0.00,,,0.00,WUHU216DAVISVP2,2013-07-27 08:12:00,
2013-07-27 03:17:00,69.0,67.8,29.94,SW,233,2.0,2.0,96,0.00,,,0.00,WUHU216DAVISVP2,2013-07-27 08:17:00,
2013-07-27 03:22:00,69.1,67.9,29.94,SW,222,0.0,4.0,96,0.00,,,0.00,WUHU216DAVISVP2,2013-07-27 08:22:00,
2013-07-27 03:27:00,69.2,68.0,29.94,WNW,284,2.0,4.0,96,0.00,,,0.00,WUHU216DAVISVP2,2013-07-27 08:27:00,
2013-07-27 03:32:00,69.1,67.9,29.93,WNW,297,2.0,3.0,96,0.00,,,0.00,WUHU216DAVISVP2,2013-07-27 08:32:00,
2013-07-27 03:37:00,69.1,67.9,29.93,NW,304,2.0,3.0,96,0.00,,,0.00,WUHU216DAVISVP2,2013-07-27 08:37:00,
2013-07-27 03:42:00,69.2,68.0,29.93,SW,236,1.0,3.0,96,0.00,,,0.00,WUHU216DAVISVP2,2013-07-27 08:42:00,
2013-07-27 03:47:00,69.2,68.0,29.93,WSW,237,1.0,3.0,96,0.00,,,0.00,WUHU216DAVISVP2,2013-07-27 08:47:00,
2013-07-27 03:52:00,69.2,68.0,29.93,WSW,253,3.0,4.0,96,0.00,,,0.00,WUHU216DAVISVP2,2013-07-27 08:52:00,
2013-07-27 03:57:00,69.2,68.0,29.93,SSW,212,0.0,4.0,96,0.00,,,0.00,WUHU216DAVISVP2,2013-07-27 08:57:00,
2013-07-27 04:02:00,69.3,68.1,29.93,West,276,3.0,4.0,96,0.00,,,0.00,WUHU216DAVISVP2,2013-07-27 09:02:00,
2013-07-27 04:07:00,69.4,68.2,29.93,NNW,338,2.0,4.0,96,0.00,,,0.00,WUHU216DAVISVP2,2013-07-27 09:07:00,
2013-07-27 04:12:00,69.3,67.8,29.93,West,278,2.0,4.0,95,0.00,,,0.00,WUHU216DAVISVP2,2013-07-27 09:12:00,
2013-07-27 04:17:00,69.2,67.7,29.93,WNW,283,3.0,3.0,95,0.00,,,0.00,WUHU216DAVISVP2,2013-07-27 09:17:00,
2013-07-27 04:22:00,69.2,67.7,29.93,WNW,295,1.0,4.0,95,0.00,,,0.00,WUHU216DAVISVP2,2013-07-27 09:22:00,
2013-07-27 04:27:00,69.2,67.7,29.93,NW,325,3.0,4.0,95,0.00,,,0.00,WUHU216DAVISVP2,2013-07-27 09:27:00,
2013-07-27 04:32:00,69.2,67.7,29.93,NNW,331,4.0,6.0,95,0.01,,,0.01,WUHU216DAVISVP2,2013-07-27 09:32:00,
2013-07-27 04:37:00,69.2,67.7,29.93,NNW,347,2.0,6.0,95,0.01,,,0.01,WUHU216DAVISVP2,2013-07-27 09:37:00,
2013-07-27 04:42:00,69.2,67.7,29.93,NNW,328,3.0,4.0,95,0.01,,,0.01,WUHU216DAVISVP2,2013-07-27 09:42:00,
2013-07-27 04:47:00,69.1,67.6,29.93,NW,320,2.0,4.0,95,0.01,,,0.01,WUHU216DAVISVP2,2013-07-27 09:47:00,
2013-07-27 04:52:00,69.0,67.5,29.93,NW,325,2.0,4.0,95,0.01,,,0.01,WUHU216DAVISVP2,2013-07-27 09:52:00,
2013-07-27 04:57:00,68.9,67.4,29.93,West,274,2.0,4.0,95,0.01,,,0.01,WUHU216DAVISVP2,2013-07-27 09:57:00,
2013-07-27 05:02:00,68.8,67.3,29.93,NNW,328,5.0,5.0,95,0.01,,,0.01,WUHU216DAVISVP2,2013-07-27 10:02:00,
2013-07-27 05:07:00,68.6,67.1,29.93,NW,306,4.0,6.0,95,0.01,,,0.01,WUHU216DAVISVP2,2013-07-27 10:07:00,
2013-07-27 05:12:00,68.5,67.0,29.93,NE,44,1.0,7.0,95,0.01,,,0.01,WUHU216DAVISVP2,2013-07-27 10:12:00,
2013-07-27 05:17:00,68.3,66.8,29.93,NW,326,3.0,7.0,95,0.01,,,0.01,WUHU216DAVISVP2,2013-07-27 10:17:00,
2013-07-27 05:22:00,68.2,66.7,29.93,NNW,331,3.0,9.0,95,0.01,,,0.01,WUHU216DAVISVP2,2013-07-27 10:22:00,
2013-07-27 05:27:00,68.0,66.5,29.93,NW,306,4.0,9.0,95,0.01,,,0.01,WUHU216DAVISVP2,2013-07-27 10:27:00,
2013-07-27 05:32:00,67.7,66.2,29.94,NW,326,2.0,6.0,95,0.00,,,0.01,WUHU216DAVISVP2,2013-07-27 10:32:00,
2013-07-27 05:37:00,67.6,66.1,29.94,NNW,331,7.0,7.0,95,0.00,,,0.01,WUHU216DAVISVP2,2013-07-27 10:37:00,
2013-07-27 05:42:00,67.5,66.0,29.94,NNW,328,5.0,7.0,95,0.00,,,0.01,WUHU216DAVISVP2,2013-07-27 10:42:00,
2013-07-27 05:47:00,67.3,65.8,29.94,NW,320,5.0,7.0,95,0.00,,,0.01,WUHU216DAVISVP2,2013-07-27 10:47:00,
2013-07-27 05:52:00,67.2,65.7,29.95,NW,320,3.0,7.0,95,0.00,,,0.01,WUHU216DAVISVP2,2013-07-27 10:52:00,
2013-07-27 05:57:00,67.1,65.6,29.95,NNW,328,4.0,6.0,95,0.00,,,0.01,WUHU216DAVISVP2,2013-07-27 10:57:00,
2013-07-27 06:02:00,66.9,65.4,29.95,NNW,333,3.0,6.0,95,0.00,,,0.01,WUHU216DAVISVP2,2013-07-27 11:02:00,
2013-07-27 06:07:00,66.7,65.2,29.95,NW,323,2.0,5.0,95,0.00,,,0.01,WUHU216DAVISVP2,2013-07-27 11:07:00,
2013-07-27 06:12:00,66.6,65.1,29.95,NNW,341,2.0,5.0,95,0.00,,,0.01,WUHU216DAVISVP2,2013-07-27 11:12:00,
2013-07-27 06:17:00,66.5,65.0,29.95,NW,318,2.0,5.0,95,0.00,,,0.01,WUHU216DAVISVP2,2013-07-27 11:17:00,
2013-07-27 06:22:00,66.4,64.6,29.95,NW,324,3.0,4.0,94,0.00,,,0.01,WUHU216DAVISVP2,2013-07-27 11:22:00,
2013-07-27 06:27:00,66.4,64.6,29.96,NNW,328,4.0,4.0,94,0.00,,,0.01,WUHU216DAVISVP2,2013-07-27 11:27:00,
2013-07-27 06:32:00,66.5,64.7,29.96,NW,326,2.0,5.0,94,0.00,,,0.01,WUHU216DAVISVP2,2013-07-27 11:32:00,
2013-07-27 06:37:00,66.6,64.8,29.95,NNW,337,1.0,5.0,94,0.00,,,0.01,WUHU216DAVISVP2,2013-07-27 11:37:00,
2013-07-27 06:42:00,66.8,65.0,29.96,NNW,332,2.0,3.0,94,0.00,,,0.01,WUHU216DAVISVP2,2013-07-27 11:42:00,
2013-07-27 06:47:00,66.9,65.1,29.95,NNW,337,0.0,3.0,94,0.00,,,0.01,WUHU216DAVISVP2,2013-07-27 11:47:00,
2013-07-27 06:52:00,66.7,64.9,29.95,NNW,330,2.0,4.0,94,0.00,,,0.01,WUHU216DAVISVP2,2013-07-27 11:52:00,
2013-07-27 06:57:00,66.5,64.7,29.96,NW,314,3.0,6.0,94,0.00,,,0.01,WUHU216DAVISVP2,2013-07-27 11:57:00,
2013-07-27 07:02:00,66.5,64.7,29.96,NW,322,5.0,6.0,94,0.00,,,0.01,WUHU216DAVISVP2,2013-07-27 12:02:00,
2013-07-27 07:07:00,66.6,64.5,29.96,NNW,334,3.0,6.0,93,0.00,,,0.01,WUHU216DAVISVP2,2013-07-27 12:07:00,
2013-07-27 07:12:00,66.6,64.5,29.96,NW,319,3.0,6.0,93,0.00,,,0.01,WUHU216DAVISVP2,2013-07-27 12:12:00,
2013-07-27 07:17:00,66.5,64.4,29.96,NNW,334,4.0,7.0,93,0.00,,,0.01,WUHU216DAVISVP2,2013-07-27 12:17:00,
2013-07-27 07:22:00,66.6,64.2,29.96,NNW,328,3.0,9.0,92,0.00,,,0.01,WUHU216DAVISVP2,2013-07-27 12:22:00,
2013-07-27 07:27:00,66.6,63.9,29.97,NNW,338,6.0,9.0,91,0.00,,,0.01,WUHU216DAVISVP2,2013-07-27 12:27:00,
2013-07-27 07:32:00,66.7,64.0,29.97,NE,50,0.0,8.0,91,0.00,,,0.01,WUHU216DAVISVP2,2013-07-27 12:32:00,
2013-07-27 07:37:00,66.7,63.7,29.97,NNW,344,7.0,8.0,90,0.00,,,0.01,WUHU216DAVISVP2,2013-07-27 12:37:00,
2013-07-27 07:42:00,66.7,63.0,29.97,NNW,348,5.0,8.0,88,0.00,,,0.01,WUHU216DAVISVP2,2013-07-27 12:42:00,
2013-07-27 07:47:00,66.8,63.4,29.97,NNW,333,0.0,8.0,89,0.00,,,0.01,WUHU216DAVISVP2,2013-07-27 12:47:00,
2013-07-27 07:52:00,66.9,63.2,29.97,NNW,328,3.0,5.0,88,0.00,,,0.01,WUHU216DAVISVP2,2013-07-27 12:52:00,
2013-07-27 07:57:00,67.1,63.1,29.97,NW,322,4.0,6.0,87,0.00,,,0.01,WUHU216DAVISVP2,2013-07-27 12:57:00,
2013-07-27 08:02:00,67.4,63.4,29.97,NW,312,2.0,6.0,87,0.00,,,0.01,WUHU216DAVISVP2,2013-07-27 13:02:00,
2013-07-27 08:07:00,67.8,63.8,29.97,ENE,63,2.0,5.0,87,0.00,,,0.01,WUHU216DAVISVP2,2013-07-27 13:07:00,
2013-07-27 08:12:00,68.0,63.7,29.97,NW,315,4.0,7.0,86,0.00,,,0.01,WUHU216DAVISVP2,2013-07-27 13:12:00,
2013-07-27 08:17:00,67.8,63.8,29.97,NNE,18,1.0,7.0,87,0.00,,,0.01,WUHU216DAVISVP2,2013-07-27 13:17:00,
2013-07-27 08:22:00,67.6,63.3,29.97,NNW,338,4.0,7.0,86,0.00,,,0.01,WUHU216DAVISVP2,2013-07-27 13:22:00,
2013-07-27 08:27:00,67.9,63.6,29.97,NNW,328,4.0,6.0,86,0.00,,,0.01,WUHU216DAVISVP2,2013-07-27 13:27:00,
2013-07-27 08:32:00,68.2,63.9,29.97,NW,326,3.0,6.0,86,0.00,,,0.01,WUHU216DAVISVP2,2013-07-27 13:32:00,
2013-07-27 08:37:00,68.7,64.0,29.97,NW,313,5.0,6.0,85,0.00,,,0.01,WUHU216DAVISVP2,2013-07-27 13:37:00,
2013-07-27 08:42:00,68.9,63.9,29.97,WNW,288,4.0,7.0,84,0.00,,,0.01,WUHU216DAVISVP2,2013-07-27 13:42:00,
2013-07-27 08:47:00,69.2,64.5,29.97,NW,325,7.0,7.0,85,0.00,,,0.01,WUHU216DAVISVP2,2013-07-27 13:47:00,
2013-07-27 08:52:00,69.3,63.6,29.97,NNW,338,7.0,9.0,82,0.00,,,0.01,WUHU216DAVISVP2,2013-07-27 13:52:00,
2013-07-27 08:57:00,69.4,64.4,29.97,NW,305,5.0,9.0,84,0.00,,,0.01,WUHU216DAVISVP2,2013-07-27 13:57:00,
2013-07-27 09:02:00,69.9,63.8,29.97,NW,316,1.0,8.0,81,0.00,,,0.01,WUHU216DAVISVP2,2013-07-27 14:02:00,
2013-07-27 09:07:00,69.7,64.0,29.97,NNW,328,7.0,9.0,82,0.00,,,0.01,WUHU216DAVISVP2,2013-07-27 14:07:00,
2013-07-27 09:12:00,69.6,63.2,29.97,NW,305,4.0,9.0,80,0.00,,,0.01,WUHU216DAVISVP2,2013-07-27 14:12:00,
2013-07-27 09:17:00,69.9,62.1,29.97,NW,316,4.0,8.0,76,0.00,,,0.01,WUHU216DAVISVP2,2013-07-27 14:17:00,
2013-07-27 09:22:00,69.9,62.1,29.97,NW,319,5.0,8.0,76,0.00,,,0.01,WUHU216DAVISVP2,2013-07-27 14:22:00,
2013-07-27 09:27:00,70.2,62.4,29.97,NW,323,5.0,9.0,76,0.00,,,0.01,WUHU216DAVISVP2,2013-07-27 14:27:00,
2013-07-27 09:32:00,70.1,62.7,29.97,NNW,328,6.0,9.0,77,0.00,,,0.01,WUHU216DAVISVP2,2013-07-27 14:32:00,
2013-07-27 09:37:00,70.4,63.2,29.97,NW,321,4.0,8.0,78,0.00,,,0.01,WUHU216DAVISVP2,2013-07-27 14:37:00,
2013-07-27 09:42:00,70.6,62.4,29.97,NNW,345,7.0,9.0,75,0.00,,,0.01,WUHU216DAVISVP2,2013-07-27 14:42:00,
2013-07-27 09:47:00,70.9,62.7,29.97,West,277,5.0,9.0,75,0.00,,,0.01,WUHU216DAVISVP2,2013-07-27 14:47:00,
2013-07-27 09:52:00,71.4,62.5,29.97,WNW,302,3.0,7.0,73,0.00,,,0.01,WUHU216DAVISVP2,2013-07-27 14:52:00,
2013-07-27 09:57:00,71.6,62.3,29.97,NNW,336,4.0,8.0,72,0.00,,,0.01,WUHU216DAVISVP2,2013-07-27 14:57:00,
2013-07-27 10:02:00,71.7,62.7,29.97,North,354,5.0,10.0,73,0.00,,,0.01,WUHU216DAVISVP2,2013-07-27 15:02:00,
2013-07-27 10:07:00,71.7,61.4,29.97,NNW,335,8.0,10.0,70,0.00,,,0.01,WUHU216DAVISVP2,2013-07-27 15:07:00,
2013-07-27 10:12:00,71.9,61.6,29.97,NW,323,2.0,9.0,70,0.00,,,0.01,WUHU216DAVISVP2,2013-07-27 15:12:00,
2013-07-27 10:17:00,72.1,61.4,29.97,NW,322,7.0,9.0,69,0.00,,,0.01,WUHU216DAVISVP2,2013-07-27 15:17:00,
2013-07-27 10:22:00,72.0,61.9,29.97,NNW,328,7.0,10.0,70,0.00,,,0.01,WUHU216DAVISVP2,2013-07-27 15:22:00,
2013-07-27 10:27:00,72.2,61.2,29.97,NW,325,5.0,10.0,68,0.00,,,0.01,WUHU216DAVISVP2,2013-07-27 15:27:00,
2013-07-27 10:32:00,72.7,62.1,29.97,NW,314,2.0,12.0,69,0.00,,,0.01,WUHU216DAVISVP2,2013-07-27 15:32:00,
2013-07-27 10:37:00,73.1,60.4,29.97,West,271,5.0,12.0,64,0.00,,,0.01,WUHU216DAVISVP2,2013-07-27 15:37:00,
2013-07-27 10:42:00,73.1,60.4,29.97,WNW,297,3.0,9.0,64,0.00,,,0.01,WUHU216DAVISVP2,2013-07-27 15:42:00,
2013-07-27 10:47:00,73.1,62.1,29.97,NNW,332,4.0,9.0,68,0.00,,,0.01,WUHU216DAVISVP2,2013-07-27 15:47:00,
2013-07-27 10:52:00,73.0,61.6,29.97,WNW,290,6.0,9.0,67,0.00,,,0.01,WUHU216DAVISVP2,2013-07-27 15:52:00,
2013-07-27 10:57:00,73.3,61.9,29.97,WNW,291,4.0,8.0,67,0.00,,,0.01,WUHU216DAVISVP2,2013-07-27 15:57:00,
2013-07-27 11:02:00,73.3,61.9,29.97,NW,310,5.0,9.0,67,0.00,,,0.01,WUHU216DAVISVP2,2013-07-27 16:02:00,
2013-07-27 11:07:00,73.4,60.7,29.97,WNW,285,4.0,10.0,64,0.00,,,0.01,WUHU216DAVISVP2,2013-07-27 16:07:00,
2013-07-27 11:12:00,73.2,61.8,29.97,NW,305,5.0,10.0,67,0.00,,,0.01,WUHU216DAVISVP2,2013-07-27 16:12:00,
2013-07-27 11:17:00,73.5,63.5,29.97,NNW,348,5.0,10.0,71,0.00,,,0.01,WUHU216DAVISVP2,2013-07-27 16:17:00,
2013-07-27 11:22:00,74.2,61.7,29.97,West,262,6.0,10.0,65,0.00,,,0.01,WUHU216DAVISVP2,2013-07-27 16:22:00,
2013-07-27 11:27:00,74.0,60.4,29.97,NNW,335,5.0,11.0,62,0.00,,,0.01,WUHU216DAVISVP2,2013-07-27 16:27:00,
2013-07-27 11:32:00,74.1,62.2,29.97,North,353,10.0,12.0,66,0.00,,,0.01,WUHU216DAVISVP2,2013-07-27 16:32:00,
2013-07-27 11:37:00,73.5,61.7,29.96,NW,310,5.0,13.0,66,0.00,,,0.01,WUHU216DAVISVP2,2013-07-27 16:37:00,
2013-07-27 11:42:00,74.2,61.9,29.96,North,8,3.0,13.0,65,0.00,,,0.01,WUHU216DAVISVP2,2013-07-27 16:42:00,
2013-07-27 11:47:00,75.0,62.7,29.96,NW,311,8.0,12.0,65,0.00,,,0.01,WUHU216DAVISVP2,2013-07-27 16:47:00,
2013-07-27 11:52:00,75.4,61.2,29.96,WNW,290,9.0,12.0,61,0.00,,,0.01,WUHU216DAVISVP2,2013-07-27 16:52:00,
2013-07-27 11:57:00,75.4,61.7,29.96,WNW,283,7.0,11.0,62,0.00,,,0.01,WUHU216DAVISVP2,2013-07-27 16:57:00,
2013-07-27 12:02:00,75.3,60.7,29.95,NNW,328,5.0,15.0,60,0.00,,,0.01,WUHU216DAVISVP2,2013-07-27 17:02:00,
2013-07-27 12:07:00,75.5,61.3,29.95,West,278,5.0,15.0,61,0.00,,,0.01,WUHU216DAVISVP2,2013-07-27 17:07:00,
2013-07-27 12:12:00,75.4,61.0,29.95,NW,320,7.0,11.0,61,0.00,,,0.01,WUHU216DAVISVP2,2013-07-27 17:12:00,
2013-07-27 12:17:00,75.5,60.2,29.95,West,276,5.0,12.0,59,0.00,,,0.01,WUHU216DAVISVP2,2013-07-27 17:17:00,
2013-07-27 12:22:00,75.4,61.5,29.95,North,350,10.0,12.0,62,0.00,,,0.01,WUHU216DAVISVP2,2013-07-27 17:22:00,
2013-07-27 12:27:00,75.4,61.2,29.95,NW,321,7.0,14.0,61,0.00,,,0.01,WUHU216DAVISVP2,2013-07-27 17:27:00,
2013-07-27 12:32:00,75.7,61.5,29.95,NW,323,6.0,15.0,61,0.00,,,0.01,WUHU216DAVISVP2,2013-07-27 17:32:00,
2013-07-27 12:37:00,75.7,61.0,29.95,NW,324,10.0,15.0,60,0.00,,,0.01,WUHU216DAVISVP2,2013-07-27 17:37:00,
2013-07-27 12:42:00,74.8,60.7,29.95,NW,318,9.0,13.0,61,0.00,,,0.01,WUHU216DAVISVP2,2013-07-27 17:42:00,
2013-07-27 12:47:00,75.1,60.5,29.94,NNW,332,4.0,13.0,60,0.00,,,0.01,WUHU216DAVISVP2,2013-07-27 17:47:00,
2013-07-27 12:52:00,76.1,63.3,29.94,NNW,340,6.0,12.0,64,0.00,,,0.01,WUHU216DAVISVP2,2013-07-27 17:52:00,
2013-07-27 12:57:00,75.9,61.7,29.94,West,270,5.0,12.0,61,0.00,,,0.01,WUHU216DAVISVP2,2013-07-27 17:57:00,
2013-07-27 13:02:00,74.5,59.4,29.94,West,267,5.0,14.0,59,0.00,,,0.01,WUHU216DAVISVP2,2013-07-27 18:02:00,
2013-07-27 13:07:00,75.3,60.9,29.94,NW,314,7.0,14.0,61,0.00,,,0.01,WUHU216DAVISVP2,2013-07-27 18:07:00,
2013-07-27 13:12:00,75.1,58.8,29.94,North,354,9.0,13.0,57,0.00,,,0.01,WUHU216DAVISVP2,2013-07-27 18:12:00,
2013-07-27 13:17:00,74.7,59.9,29.94,NW,311,5.0,13.0,60,0.00,,,0.01,WUHU216DAVISVP2,2013-07-27 18:17:00,
2013-07-27 13:22:00,75.1,59.8,29.94,WNW,300,6.0,11.0,59,0.00,,,0.01,WUHU216DAVISVP2,2013-07-27 18:22:00,
2013-07-27 13:27:00,75.3,59.0,29.94,NNE,15,8.0,14.0,57,0.00,,,0.01,WUHU216DAVISVP2,2013-07-27 18:27:00,
2013-07-27 13:32:00,75.4,60.1,29.94,NNW,332,8.0,14.0,59,0.00,,,0.01,WUHU216DAVISVP2,2013-07-27 18:32:00,
2013-07-27 13:37:00,75.3,60.5,29.95,West,274,3.0,13.0,60,0.00,,,0.01,WUHU216DAVISVP2,2013-07-27 18:37:00,
2013-07-27 13:42:00,75.9,59.1,29.94,NNW,346,7.0,11.0,56,0.00,,,0.01,WUHU216DAVISVP2,2013-07-27 18:42:00,
2013-07-27 13:47:00,75.2,59.1,29.94,NW,308,10.0,16.0,57,0.00,,,0.01,WUHU216DAVISVP2,2013-07-27 18:47:00,
2013-07-27 13:52:00,75.1,59.5,29.94,WNW,295,3.0,16.0,58,0.00,,,0.01,WUHU216DAVISVP2,2013-07-27 18:52:00,
2013-07-27 13:57:00,75.1,58.5,29.94,NNW,342,10.0,12.0,56,0.00,,,0.01,WUHU216DAVISVP2,2013-07-27 18:57:00,
2013-07-27 14:02:00,75.1,60.5,29.94,NNW,338,6.0,15.0,60,0.00,,,0.01,WUHU216DAVISVP2,2013-07-27 19:02:00,
2013-07-27 14:07:00,74.9,61.7,29.94,NW,324,8.0,15.0,63,0.00,,,0.01,WUHU216DAVISVP2,2013-07-27 19:07:00,
2013-07-27 14:12:00,75.8,59.2,29.94,North,4,6.0,12.0,56,0.00,,,0.01,WUHU216DAVISVP2,2013-07-27 19:12:00,
2013-07-27 14:17:00,75.3,60.2,29.94,NNE,25,9.0,11.0,59,0.00,,,0.01,WUHU216DAVISVP2,2013-07-27 19:17:00,
2013-07-27 14:22:00,76.0,58.8,29.94,NNW,331,10.0,11.0,55,0.00,,,0.01,WUHU216DAVISVP2,2013-07-27 19:22:00,
2013-07-27 14:27:00,75.6,58.5,29.94,NW,319,11.0,14.0,55,0.00,,,0.01,WUHU216DAVISVP2,2013-07-27 19:27:00,
2013-07-27 14:32:00,75.6,59.0,29.94,NW,315,5.0,14.0,56,0.00,,,0.01,WUHU216DAVISVP2,2013-07-27 19:32:00,
2013-07-27 14:37:00,76.0,57.8,29.94,NNW,327,13.0,13.0,53,0.00,,,0.01,WUHU216DAVISVP2,2013-07-27 19:37:00,
2013-07-27 14:42:00,75.8,58.6,29.94,NW,326,7.0,13.0,55,0.00,,,0.01,WUHU216DAVISVP2,2013-07-27 19:42:00,
2013-07-27 14:47:00,76.1,58.9,29.94,NW,316,4.0,12.0,55,0.00,,,0.01,WUHU216DAVISVP2,2013-07-27 19:47:00,
2013-07-27 14:52:00,76.1,58.9,29.94,NW,323,11.0,13.0,55,0.00,,,0.01,WUHU216DAVISVP2,2013-07-27 19:52:00,
2013-07-27 14:57:00,75.4,58.3,29.94,NW,321,9.0,13.0,55,0.00,,,0.01,WUHU216DAVISVP2,2013-07-27 19:57:00,
2013-07-27 15:02:00,75.5,57.8,29.94,NW,319,7.0,14.0,54,0.00,,,0.01,WUHU216DAVISVP2,2013-07-27 20:02:00,
2013-07-27 15:07:00,75.6,59.5,29.94,NNW,345,10.0,14.0,57,0.00,,,0.01,WUHU216DAVISVP2,2013-07-27 20:07:00,
2013-07-27 15:12:00,75.0,57.9,29.94,North,8,8.0,13.0,55,0.00,,,0.01,WUHU216DAVISVP2,2013-07-27 20:12:00,
2013-07-27 15:17:00,74.8,57.7,29.94,NW,323,3.0,13.0,55,0.00,,,0.01,WUHU216DAVISVP2,2013-07-27 20:17:00,
2013-07-27 15:22:00,75.6,59.0,29.94,NE,38,8.0,11.0,56,0.00,,,0.01,WUHU216DAVISVP2,2013-07-27 20:22:00,
2013-07-27 15:27:00,76.0,57.8,29.94,NW,323,8.0,11.0,53,0.00,,,0.01,WUHU216DAVISVP2,2013-07-27 20:27:00,
2013-07-27 15:32:00,76.1,57.9,29.94,NNE,15,7.0,13.0,53,0.00,,,0.01,WUHU216DAVISVP2,2013-07-27 20:32:00,
2013-07-27 15:37:00,76.0,57.8,29.94,NNW,338,4.0,13.0,53,0.00,,,0.01,WUHU216DAVISVP2,2013-07-27 20:37:00,
2013-07-27 15:42:00,76.2,59.0,29.93,NNW,328,11.0,13.0,55,0.00,,,0.01,WUHU216DAVISVP2,2013-07-27 20:42:00,
2013-07-27 15:47:00,76.0,58.8,29.93,North,356,7.0,13.0,55,0.00,,,0.01,WUHU216DAVISVP2,2013-07-27 20:47:00,
2013-07-27 15:52:00,75.7,58.6,29.93,NNW,335,2.0,13.0,55,0.00,,,0.01,WUHU216DAVISVP2,2013-07-27 20:52:00,
2013-07-27 15:57:00,75.8,59.2,29.93,NNW,346,2.0,11.0,56,0.00,,,0.01,WUHU216DAVISVP2,2013-07-27 20:57:00,
2013-07-27 16:02:00,76.1,56.8,29.93,NW,322,3.0,11.0,51,0.00,,,0.01,WUHU216DAVISVP2,2013-07-27 21:02:00,
2013-07-27 16:08:00,76.1,56.8,29.93,WNW,290,3.0,9.0,51,0.00,,,0.01,WUHU216DAVISVP2,2013-07-27 21:08:00,
2013-07-27 16:13:00,75.0,56.8,29.93,NW,323,10.0,11.0,53,0.00,,,0.01,WUHU216DAVISVP2,2013-07-27 21:13:00,
2013-07-27 16:17:00,74.7,58.1,29.93,NNW,328,6.0,11.0,56,0.00,,,0.01,WUHU216DAVISVP2,2013-07-27 21:17:00,
2013-07-27 16:22:00,75.5,58.4,29.93,West,281,6.0,10.0,55,0.00,,,0.01,WUHU216DAVISVP2,2013-07-27 21:22:00,
2013-07-27 16:27:00,75.8,58.0,29.93,North,354,5.0,10.0,54,0.00,,,0.01,WUHU216DAVISVP2,2013-07-27 21:27:00,
2013-07-27 16:32:00,76.1,56.7,29.93,NW,314,6.0,10.0,51,0.00,,,0.01,WUHU216DAVISVP2,2013-07-27 21:32:00,
2013-07-27 16:38:00,76.1,56.7,29.93,NW,320,6.0,13.0,51,0.00,,,0.01,WUHU216DAVISVP2,2013-07-27 21:38:00,
2013-07-27 16:43:00,76.2,58.3,29.93,NNW,337,7.0,13.0,54,0.00,,,0.01,WUHU216DAVISVP2,2013-07-27 21:43:00,
2013-07-27 16:48:00,76.0,58.8,29.93,NW,323,11.0,14.0,55,0.00,,,0.01,WUHU216DAVISVP2,2013-07-27 21:48:00,
2013-07-27 16:53:00,74.8,57.2,29.94,NNE,24,7.0,14.0,54,0.00,,,0.01,WUHU216DAVISVP2,2013-07-27 21:53:00,
2013-07-27 16:58:00,74.1,57.6,29.94,NNW,327,7.0,14.0,56,0.00,,,0.01,WUHU216DAVISVP2,2013-07-27 21:58:00,
2013-07-27 17:03:00,74.5,56.4,29.93,North,360,8.0,9.0,53,0.00,,,0.01,WUHU216DAVISVP2,2013-07-27 22:03:00,
2013-07-27 17:08:00,74.8,56.1,29.93,NW,320,5.0,12.0,52,0.00,,,0.01,WUHU216DAVISVP2,2013-07-27 22:08:00,
2013-07-27 17:13:00,75.0,55.7,29.93,North,349,5.0,12.0,51,0.00,,,0.01,WUHU216DAVISVP2,2013-07-27 22:13:00,
2013-07-27 17:18:00,75.5,57.8,29.93,NW,312,6.0,10.0,54,0.00,,,0.01,WUHU216DAVISVP2,2013-07-27 22:18:00,
2013-07-27 17:23:00,75.4,57.7,29.93,NW,305,9.0,10.0,54,0.00,,,0.01,WUHU216DAVISVP2,2013-07-27 22:23:00,
2013-07-27 17:28:00,75.3,56.6,29.93,NNW,327,7.0,12.0,52,0.00,,,0.01,WUHU216DAVISVP2,2013-07-27 22:28:00,
2013-07-27 17:33:00,75.0,55.2,29.93,NW,321,11.0,15.0,50,0.00,,,0.01,WUHU216DAVISVP2,2013-07-27 22:33:00,
2013-07-27 17:38:00,74.7,56.6,29.93,NW,308,7.0,16.0,53,0.00,,,0.01,WUHU216DAVISVP2,2013-07-27 22:38:00,
2013-07-27 17:43:00,74.7,56.0,29.93,NNW,333,5.0,16.0,52,0.00,,,0.01,WUHU216DAVISVP2,2013-07-27 22:43:00,
2013-07-27 17:48:00,74.7,56.0,29.93,NW,319,13.0,14.0,52,0.00,,,0.01,WUHU216DAVISVP2,2013-07-27 22:48:00,
2013-07-27 17:53:00,74.4,56.3,29.93,North,354,9.0,13.0,53,0.00,,,0.01,WUHU216DAVISVP2,2013-07-27 22:53:00,
2013-07-27 17:58:00,74.3,56.2,29.93,West,271,6.0,13.0,53,0.00,,,0.01,WUHU216DAVISVP2,2013-07-27 22:58:00,
2013-07-27 18:03:00,73.9,54.7,29.93,NNW,333,8.0,15.0,51,0.00,,,0.01,WUHU216DAVISVP2,2013-07-27 23:03:00,
2013-07-27 18:08:00,73.7,56.2,29.93,NNW,333,6.0,15.0,54,0.00,,,0.01,WUHU216DAVISVP2,2013-07-27 23:08:00,
2013-07-27 18:13:00,73.8,56.3,29.93,NW,326,8.0,12.0,54,0.00,,,0.01,WUHU216DAVISVP2,2013-07-27 23:13:00,
2013-07-27 18:18:00,73.7,56.2,29.93,NW,321,6.0,12.0,54,0.00,,,0.01,WUHU216DAVISVP2,2013-07-27 23:18:00,
2013-07-27 18:23:00,73.7,55.6,29.93,NW,310,8.0,13.0,53,0.00,,,0.01,WUHU216DAVISVP2,2013-07-27 23:23:00,
2013-07-27 18:28:00,73.6,54.4,29.93,NW,319,4.0,13.0,51,0.00,,,0.01,WUHU216DAVISVP2,2013-07-27 23:28:00,
2013-07-27 18:33:00,73.5,55.4,29.94,NW,325,6.0,12.0,53,0.00,,,0.01,WUHU216DAVISVP2,2013-07-27 23:33:00,
2013-07-27 18:38:00,73.3,56.3,29.94,NNW,346,3.0,11.0,55,0.00,,,0.01,WUHU216DAVISVP2,2013-07-27 23:38:00,
2013-07-27 18:43:00,73.3,55.8,29.94,NNW,336,3.0,11.0,54,0.00,,,0.01,WUHU216DAVISVP2,2013-07-27 23:43:00,
2013-07-27 18:48:00,73.1,55.6,29.94,NE,37,8.0,11.0,54,0.00,,,0.01,WUHU216DAVISVP2,2013-07-27 23:48:00,
2013-07-27 18:53:00,72.7,55.2,29.94,NNW,334,7.0,11.0,54,0.00,,,0.01,WUHU216DAVISVP2,2013-07-27 23:53:00,
2013-07-27 18:58:00,72.7,55.7,29.94,NE,41,3.0,10.0,55,0.00,,,0.01,WUHU216DAVISVP2,2013-07-27 23:58:00,
2013-07-27 19:03:00,72.3,55.4,29.95,NW,322,6.0,10.0,55,0.00,,,0.01,WUHU216DAVISVP2,2013-07-28 00:03:00,
2013-07-27 19:08:00,71.4,55.5,29.95,NNW,344,5.0,10.0,57,0.00,,,0.01,WUHU216DAVISVP2,2013-07-28 00:08:00,
2013-07-27 19:13:00,71.2,55.3,29.95,NW,323,3.0,7.0,57,0.00,,,0.01,WUHU216DAVISVP2,2013-07-28 00:13:00,
2013-07-27 19:18:00,70.9,55.6,29.95,NNW,346,7.0,7.0,58,0.00,,,0.01,WUHU216DAVISVP2,2013-07-28 00:18:00,
2013-07-27 19:23:00,70.9,55.6,29.95,NNW,340,5.0,10.0,58,0.00,,,0.01,WUHU216DAVISVP2,2013-07-28 00:23:00,
2013-07-27 19:28:00,70.9,55.6,29.95,North,352,4.0,10.0,58,0.00,,,0.01,WUHU216DAVISVP2,2013-07-28 00:28:00,
2013-07-27 19:33:00,70.7,55.4,29.95,NNW,335,5.0,8.0,58,0.00,,,0.01,WUHU216DAVISVP2,2013-07-28 00:33:00,
2013-07-27 19:38:00,70.4,55.1,29.95,NNW,328,4.0,7.0,58,0.00,,,0.01,WUHU216DAVISVP2,2013-07-28 00:38:00,
2013-07-27 19:43:00,70.0,55.2,29.95,North,354,2.0,6.0,59,0.00,,,0.01,WUHU216DAVISVP2,2013-07-28 00:43:00,
2013-07-27 19:48:00,69.4,55.5,29.95,NNW,331,0.0,6.0,61,0.00,,,0.01,WUHU216DAVISVP2,2013-07-28 00:48:00,
2013-07-27 19:53:00,68.9,56.0,29.95,NW,313,0.0,3.0,63,0.00,,,0.01,WUHU216DAVISVP2,2013-07-28 00:53:00,
2013-07-27 19:58:00,68.4,56.4,29.96,NW,320,1.0,2.0,65,0.00,,,0.01,WUHU216DAVISVP2,2013-07-28 00:58:00,
2013-07-27 20:03:00,67.5,56.7,29.96,NNW,338,1.0,2.0,68,0.00,,,0.01,WUHU216DAVISVP2,2013-07-28 01:03:00,
2013-07-27 20:08:00,66.8,56.5,29.96,NW,317,0.0,2.0,69,0.00,,,0.01,WUHU216DAVISVP2,2013-07-28 01:08:00,
2013-07-27 20:13:00,66.4,56.5,29.96,NW,319,0.0,2.0,70,0.00,,,0.01,WUHU216DAVISVP2,2013-07-28 01:13:00,
2013-07-27 20:18:00,65.8,56.3,29.96,NNW,335,0.0,2.0,71,0.00,,,0.01,WUHU216DAVISVP2,2013-07-28 01:18:00,
2013-07-27 20:23:00,65.3,56.2,29.96,NNW,335,0.0,2.0,72,0.00,,,0.01,WUHU216DAVISVP2,2013-07-28 01:23:00,
2013-07-27 20:28:00,64.9,55.8,29.96,NNW,335,0.0,1.0,72,0.00,,,0.01,WUHU216DAVISVP2,2013-07-28 01:28:00,
2013-07-27 20:33:00,64.5,55.8,29.96,NNW,333,0.0,2.0,73,0.00,,,0.01,WUHU216DAVISVP2,2013-07-28 01:33:00,
2013-07-27 20:38:00,64.2,55.5,29.96,NNW,333,0.0,2.0,73,0.00,,,0.01,WUHU216DAVISVP2,2013-07-28 01:38:00,
2013-07-27 20:43:00,63.8,55.1,29.96,NNW,333,0.0,1.0,73,0.00,,,0.01,WUHU216DAVISVP2,2013-07-28 01:43:00,
2013-07-27 20:48:00,63.5,55.2,29.96,NNW,334,0.0,1.0,74,0.00,,,0.01,WUHU216DAVISVP2,2013-07-28 01:48:00,
2013-07-27 20:53:00,63.2,54.9,29.96,NNW,333,0.0,1.0,74,0.00,,,0.01,WUHU216DAVISVP2,2013-07-28 01:53:00,
2013-07-27 20:58:00,63.0,54.7,29.96,NNW,333,0.0,0.0,74,0.00,,,0.01,WUHU216DAVISVP2,2013-07-28 01:58:00,
2013-07-27 21:03:00,62.8,54.5,29.96,NNW,331,0.0,1.0,74,0.00,,,0.01,WUHU216DAVISVP2,2013-07-28 02:03:00,
2013-07-27 21:08:00,62.8,54.5,29.96,NNW,329,1.0,1.0,74,0.00,,,0.01,WUHU216DAVISVP2,2013-07-28 02:08:00,
2013-07-27 21:13:00,62.8,54.5,29.97,NNW,336,0.0,1.0,74,0.00,,,0.01,WUHU216DAVISVP2,2013-07-28 02:13:00,
2013-07-27 21:18:00,62.8,54.5,29.97,NNW,336,0.0,1.0,74,0.00,,,0.01,WUHU216DAVISVP2,2013-07-28 02:18:00,
2013-07-27 21:23:00,62.5,54.2,29.97,NNW,336,0.0,1.0,74,0.00,,,0.01,WUHU216DAVISVP2,2013-07-28 02:23:00,
2013-07-27 21:28:00,62.4,54.1,29.98,NNW,336,0.0,1.0,74,0.00,,,0.01,WUHU216DAVISVP2,2013-07-28 02:28:00,
2013-07-27 21:33:00,62.3,54.0,29.98,NNW,336,0.0,1.0,74,0.00,,,0.01,WUHU216DAVISVP2,2013-07-28 02:33:00,
2013-07-27 21:38:00,62.1,54.2,29.98,NNW,336,0.0,0.0,75,0.00,,,0.01,WUHU216DAVISVP2,2013-07-28 02:38:00,
2013-07-27 21:43:00,61.8,54.2,29.98,NNW,343,0.0,0.0,76,0.00,,,0.01,WUHU216DAVISVP2,2013-07-28 02:43:00,
2013-07-27 21:48:00,61.7,54.4,29.98,NNW,343,0.0,1.0,77,0.00,,,0.01,WUHU216DAVISVP2,2013-07-28 02:48:00,
2013-07-27 21:53:00,61.5,54.2,29.98,NNW,343,0.0,1.0,77,0.00,,,0.01,WUHU216DAVISVP2,2013-07-28 02:53:00,
2013-07-27 21:58:00,61.2,54.3,29.98,NNW,343,0.0,1.0,78,0.00,,,0.01,WUHU216DAVISVP2,2013-07-28 02:58:00,
2013-07-27 22:03:00,61.1,54.2,29.99,NNW,343,0.0,0.0,78,0.00,,,0.01,WUHU216DAVISVP2,2013-07-28 03:03:00,
2013-07-27 22:08:00,61.0,54.1,29.99,NNW,343,0.0,0.0,78,0.00,,,0.01,WUHU216DAVISVP2,2013-07-28 03:08:00,
2013-07-27 22:13:00,60.9,54.3,29.99,NNW,343,0.0,0.0,79,0.00,,,0.01,WUHU216DAVISVP2,2013-07-28 03:13:00,
2013-07-27 22:18:00,60.9,54.0,29.99,NNW,343,0.0,0.0,78,0.00,,,0.01,WUHU216DAVISVP2,2013-07-28 03:18:00,
2013-07-27 22:23:00,60.9,54.0,29.99,NNW,343,0.0,0.0,78,0.00,,,0.01,WUHU216DAVISVP2,2013-07-28 03:23:00,
2013-07-27 22:28:00,60.9,54.3,29.98,NNW,343,0.0,0.0,79,0.00,,,0.01,WUHU216DAVISVP2,2013-07-28 03:28:00,
2013-07-27 22:29:00,60.9,54.0,29.98,NNW,343,0.0,0.0,78,0.00,,,0.01,WUHU216DAVISVP2,2013-07-28 03:29:00,
2013-07-27 22:34:00,60.6,54.5,29.98,NNW,343,0.0,0.0,80,0.00,,,0.01,WUHU216DAVISVP2,2013-07-28 03:34:00,
2013-07-27 22:39:00,60.2,54.4,29.98,NNW,343,0.0,0.0,81,0.00,,,0.01,WUHU216DAVISVP2,2013-07-28 03:39:00,
2013-07-27 22:44:00,60.0,54.2,29.99,NNW,343,0.0,0.0,81,0.00,,,0.01,WUHU216DAVISVP2,2013-07-28 03:44:00,
2013-07-27 22:49:00,59.7,53.9,29.98,NNW,343,0.0,0.0,81,0.00,,,0.01,WUHU216DAVISVP2,2013-07-28 03:49:00,
2013-07-27 22:54:00,59.5,54.4,29.99,NNW,343,0.0,0.0,83,0.00,,,0.01,WUHU216DAVISVP2,2013-07-28 03:54:00,
2013-07-27 22:59:00,59.1,54.6,29.98,NNW,342,0.0,0.0,85,0.00,,,0.01,WUHU216DAVISVP2,2013-07-28 03:59:00,
2013-07-27 23:01:00,59.0,54.8,29.98,NNW,342,0.0,0.0,86,0.00,,,0.01,WUHU216DAVISVP2,2013-07-28 04:01:00,
2013-07-27 23:02:00,58.9,54.7,29.98,NNW,342,0.0,0.0,86,0.00,,,0.01,WUHU216DAVISVP2,2013-07-28 04:02:00,
2013-07-27 23:07:00,58.8,54.6,29.98,NNW,342,0.0,0.0,86,0.00,,,0.01,WUHU216DAVISVP2,2013-07-28 04:07:00,
2013-07-27 23:12:00,59.0,54.8,29.98,NNW,342,0.0,0.0,86,0.00,,,0.01,WUHU216DAVISVP2,2013-07-28 04:12:00,
2013-07-27 23:17:00,59.0,54.5,29.99,NNW,342,0.0,0.0,85,0.00,,,0.01,WUHU216DAVISVP2,2013-07-28 04:17:00,
2013-07-27 23:22:00,59.2,54.4,29.99,NNW,348,0.0,0.0,84,0.00,,,0.01,WUHU216DAVISVP2,2013-07-28 04:22:00,
2013-07-27 23:27:00,59.3,54.5,29.99,NNW,348,0.0,0.0,84,0.00,,,0.01,WUHU216DAVISVP2,2013-07-28 04:27:00,
2013-07-27 23:32:00,59.3,54.1,29.98,NNW,348,0.0,0.0,83,0.00,,,0.01,WUHU216DAVISVP2,2013-07-28 04:32:00,
2013-07-27 23:37:00,59.2,53.7,29.99,NNW,348,0.0,0.0,82,0.00,,,0.01,WUHU216DAVISVP2,2013-07-28 04:37:00,
2013-07-27 23:42:00,59.1,53.6,29.98,NNW,348,0.0,0.0,82,0.00,,,0.01,WUHU216DAVISVP2,2013-07-28 04:42:00,
2013-07-27 23:47:00,59.1,54.0,29.98,NNW,348,0.0,0.0,83,0.00,,,0.01,WUHU216DAVISVP2,2013-07-28 04:47:00,
2013-07-27 23:52:00,58.9,53.8,29.99,NNW,348,0.0,0.0,83,0.00,,,0.01,WUHU216DAVISVP2,2013-07-28 04:52:00,
2013-07-27 23:57:00,58.6,53.8,29.99,NNW,348,0.0,0.0,84,0.00,,,0.01,WUHU216DAVISVP2,2013-07-28 04:57:00,